Jimmy Lake, Canada
Current Conditions -  °F | °C
As of 1:00 PM on Thursday 27 Nov 2014 (Local Time) from CWHN Reporting Station
Few Clouds Few Clouds  
Wind Chill: -28°   Ceiling: Unl
Heat Index: -20°   Visibility: 9mi
Dew Point: -22°   Wind: 7mph
Humidity: 85%   Direction: 20°NNE
Pressure: 30.15"   Gusts: NA
Location:  54.9°N, 109.97°W
Report Text: CWHN 271900Z AUTO 02006KT 330V060 9SM FEW077 M20/M22 A3015 RMKSLP269
Loading
Personal Weather Stations






























Interactive Weather Map New forecast layout! Learn more

10-Day Weather Forecast

Advertisements
Track Severe Weather on mobile